Terminal Aerodrome Forecast
Issued by NWS

Home | Current Version | Previous Version | Text Only | Print | Product List | Glossary On
Versions: 1 2 3 4 5 6 7 8 9 10 11 12 13
000
FTUS44 KEPZ 240500
TAFDMN
TAF
KDMN 240527Z 2406/2506 29006KT P6SM FEW250
     FM241700 16007KT P6SM FEW070 FEW250
     FM242000 19007KT P6SM FEW070 FEW250
     FM250400 31007KT P6SM FEW250=

USA.gov is the U.S. government's official web portal to all federal, state and local government web resources and services.